Time;durP1;ratioP1;P1;durP2;ratioP2;P2;SDS_P1;SDS_P2;PMS_P1;PMS_P2;Temp;Humidity;BMP_temperature;BMP_pressure;BME280_temperature;BME280_humidity;BME280_pressure;Samples;Min_cycle;Max_cycle;Signal;HPM_P1;HPM_P2
2023/08/17 00:00:13;;;;;;;3.00;2.67;;;19.80;1.00;;;;;;5027584;28;20186;-75
2023/08/17 00:02:39;;;;;;;4.05;2.75;;;19.80;73.50;;;;;;5027560;28;20262;-75
2023/08/17 00:05:08;;;;;;;5.32;2.83;;;19.90;1.00;;;;;;5026839;28;20227;-74
2023/08/17 00:07:33;;;;;;;3.05;2.75;;;20.00;1.00;;;;;;5027238;28;20175;-75
2023/08/17 00:09:59;;;;;;;4.63;2.85;;;20.00;1.00;;;;;;5027814;28;20659;-75
2023/08/17 00:12:25;;;;;;;4.50;2.85;;;19.90;1.00;;;;;;5026959;28;20655;-75
2023/08/17 00:14:52;;;;;;;4.00;2.97;;;20.00;1.00;;;;;;5026235;28;20199;-75
2023/08/17 00:17:18;;;;;;;3.20;2.80;;;20.00;35.40;;;;;;5027006;28;20191;-75
2023/08/17 00:19:43;;;;;;;3.38;2.67;;;20.00;5.20;;;;;;5009193;28;20699;-75
2023/08/17 00:22:10;;;;;;;3.22;2.65;;;20.00;71.50;;;;;;5026302;28;20669;-75
2023/08/17 00:24:35;;;;;;;5.07;3.15;;;20.00;37.60;;;;;;5027090;28;20873;-75
2023/08/17 00:27:01;;;;;;;4.15;2.92;;;20.20;99.90;;;;;;5026676;28;20175;-75
2023/08/17 00:29:27;;;;;;;3.58;3.28;;;20.20;99.90;;;;;;5026899;28;20536;-75
2023/08/17 00:31:52;;;;;;;3.08;2.75;;;20.20;99.90;;;;;;5026763;28;20580;-75
2023/08/17 00:34:18;;;;;;;3.45;3.15;;;20.10;69.00;;;;;;5026909;28;20206;-75
2023/08/17 00:36:44;;;;;;;3.08;2.80;;;20.10;99.80;;;;;;5026446;28;20185;-75
2023/08/17 00:39:10;;;;;;;4.82;3.60;;;20.20;99.90;;;;;;5027087;28;20210;-75
2023/08/17 00:41:35;;;;;;;5.05;3.53;;;20.20;99.90;;;;;;5026391;28;20233;-75
2023/08/17 00:44:01;;;;;;;4.38;3.38;;;20.20;99.90;;;;;;5026504;28;20203;-75
2023/08/17 00:46:27;;;;;;;4.22;3.72;;;20.20;99.90;;;;;;5025844;28;20619;-75
2023/08/17 00:48:54;;;;;;;6.72;3.67;;;20.30;99.90;;;;;;5026865;28;20266;-75
2023/08/17 00:51:25;;;;;;;3.63;2.92;;;20.20;99.90;;;;;;5026158;28;20230;-75
2023/08/17 00:53:53;;;;;;;4.85;3.63;;;20.10;99.90;;;;;;5026332;28;20213;-75
2023/08/17 00:56:19;;;;;;;5.15;3.22;;;20.10;1.00;;;;;;5025202;28;20641;-75
2023/08/17 00:58:44;;;;;;;4.00;3.60;;;20.10;1.00;;;;;;5008518;28;20210;-75
2023/08/17 01:01:10;;;;;;;5.28;3.38;;;20.10;1.00;;;;;;5025969;28;20184;-75
2023/08/17 01:03:36;;;;;;;5.47;4.00;;;20.10;1.00;;;;;;5026461;28;20202;-75
2023/08/17 01:06:02;;;;;;;4.28;3.80;;;20.10;1.00;;;;;;5025090;28;20179;-75
2023/08/17 01:08:29;;;;;;;4.05;3.65;;;20.10;1.00;;;;;;5026300;28;20191;-75
2023/08/17 01:11:07;;;;;;;4.95;4.05;;;20.10;1.00;;;;;;5008147;28;20210;-75
2023/08/17 01:13:49;;;;;;;6.13;4.30;;;20.10;1.00;;;;;;5026079;28;20276;-75
2023/08/17 01:16:24;;;;;;;4.10;3.80;;;20.20;99.90;;;;;;5025419;28;20659;-74
2023/08/17 01:18:51;;;;;;;3.63;3.33;;;20.20;67.60;;;;;;5025811;28;20210;-75
2023/08/17 01:21:20;;;;;;;5.18;4.03;;;20.00;1.00;;;;;;5026027;28;20274;-76
2023/08/17 01:23:46;;;;;;;6.75;4.20;;;20.10;1.00;;;;;;5025801;28;20190;-75
2023/08/17 01:26:15;;;;;;;5.40;4.10;;;20.10;1.00;;;;;;5025187;28;20203;-74
2023/08/17 01:28:45;;;;;;;5.65;4.50;;;20.10;1.00;;;;;;5025897;28;20665;-74
2023/08/17 01:31:37;;;;;;;7.45;5.22;;;20.00;1.00;;;;;;5007523;28;20190;-74
2023/08/17 01:34:09;;;;;;;5.60;4.68;;;19.90;11.00;;;;;;5025675;28;20199;-75
2023/08/17 01:36:45;;;;;;;7.57;4.53;;;19.70;99.90;;;;;;5025102;28;20198;-75
2023/08/17 01:39:11;;;;;;;8.68;4.80;;;19.30;99.90;;;;;;5025616;28;20210;-74
2023/08/17 01:41:39;;;;;;;8.23;5.32;;;19.10;1.00;;;;;;5025038;28;20276;-76
2023/08/17 01:44:05;;;;;;;10.32;5.78;;;19.00;99.90;;;;;;5025661;28;20214;-75
2023/08/17 01:46:32;;;;;;;12.30;5.95;;;19.00;1.00;;;;;;5020802;28;20182;-75
2023/08/17 01:48:58;;;;;;;10.93;6.10;;;19.00;1.00;;;;;;5024812;28;20642;-75
2023/08/17 01:51:25;;;;;;;8.35;5.10;;;19.10;1.00;;;;;;5024765;28;20182;-76
2023/08/17 01:53:51;;;;;;;6.03;4.18;;;19.10;1.00;;;;;;5007241;28;20285;-75
2023/08/17 01:56:17;;;;;;;7.28;4.47;;;19.00;1.00;;;;;;5006699;28;20187;-76
2023/08/17 01:58:43;;;;;;;9.32;5.13;;;19.00;1.00;;;;;;5025022;28;20524;-75
2023/08/17 02:01:09;;;;;;;9.88;4.80;;;19.00;1.00;;;;;;5006762;28;20183;-77
2023/08/17 02:03:35;;;;;;;5.20;4.30;;;18.80;1.00;;;;;;5024984;28;20256;-75
2023/08/17 02:06:01;;;;;;;5.25;3.60;;;18.80;1.00;;;;;;5024192;28;20183;-77
2023/08/17 02:08:27;;;;;;;7.40;4.20;;;18.80;1.00;;;;;;5007622;28;20175;-78
2023/08/17 02:10:52;;;;;;;4.85;4.45;;;18.70;1.00;;;;;;5024840;28;20232;-78
2023/08/17 02:13:19;;;;;;;6.85;4.93;;;18.60;1.00;;;;;;5024558;28;20215;-76
2023/08/17 02:15:46;;;;;;;5.97;4.80;;;18.60;1.00;;;;;;5023883;28;20238;-78
2023/08/17 02:18:11;;;;;;;4.97;4.55;;;18.50;1.00;;;;;;5022544;28;20225;-76
2023/08/17 02:20:37;;;;;;;4.57;4.18;;;18.60;1.00;;;;;;5019349;28;20172;-77
2023/08/17 02:23:03;;;;;;;5.43;4.55;;;18.60;7.40;;;;;;5019973;28;20558;-76
2023/08/17 02:25:35;;;;;;;5.93;4.70;;;18.60;1.00;;;;;;5006156;28;20185;-78
2023/08/17 02:28:04;;;;;;;5.75;5.00;;;18.60;1.00;;;;;;5023804;28;20209;-77
2023/08/17 02:30:29;;;;;;;5.43;4.55;;;18.50;1.00;;;;;;5024353;28;20182;-78
2023/08/17 02:32:55;;;;;;;5.25;4.00;;;18.60;1.00;;;;;;5023002;28;20191;-77
2023/08/17 02:35:21;;;;;;;4.72;4.22;;;18.60;6.80;;;;;;5023995;28;20182;-77
2023/08/17 02:37:46;;;;;;;5.05;4.40;;;18.50;1.60;;;;;;5024706;28;20236;-77
2023/08/17 02:40:12;;;;;;;4.40;4.00;;;18.50;21.70;;;;;;5024821;28;20183;-78
2023/08/17 02:42:39;;;;;;;4.20;3.83;;;18.50;18.40;;;;;;5024554;28;20175;-77
2023/08/17 02:45:06;;;;;;;4.00;3.60;;;18.60;23.00;;;;;;5011027;28;20568;-76
2023/08/17 02:47:32;;;;;;;3.78;3.38;;;18.60;21.80;;;;;;5031158;28;20193;-76
2023/08/17 02:49:57;;;;;;;3.83;3.53;;;18.60;20.60;;;;;;5031481;28;20214;-78
2023/08/17 02:52:23;;;;;;;3.58;3.30;;;18.60;9.70;;;;;;5013203;28;20749;-77
2023/08/17 02:54:49;;;;;;;3.58;3.25;;;18.60;1.00;;;;;;5030557;28;20552;-78
2023/08/17 02:57:14;;;;;;;3.53;2.97;;;18.60;9.10;;;;;;5030766;28;20396;-77
2023/08/17 02:59:40;;;;;;;3.20;2.90;;;18.60;14.50;;;;;;5031485;28;20210;-77
2023/08/17 03:02:05;;;;;;;2.85;2.65;;;18.70;14.70;;;;;;5030627;28;20179;-77
2023/08/17 03:04:32;;;;;;;3.03;2.78;;;18.70;8.90;;;;;;5013535;28;20198;-77
2023/08/17 03:06:58;;;;;;;2.83;2.58;;;18.70;1.00;;;;;;5030323;28;20183;-76
2023/08/17 03:09:24;;;;;;;3.28;2.40;;;18.70;1.00;;;;;;5031548;28;20190;-75
2023/08/17 03:11:49;;;;;;;2.78;2.10;;;18.70;1.00;;;;;;5013080;28;20187;-75
2023/08/17 03:14:15;;;;;;;2.42;1.90;;;18.70;1.00;;;;;;5030932;28;20210;-77
2023/08/17 03:16:40;;;;;;;2.65;2.20;;;18.40;1.00;;;;;;5030335;28;20190;-76
2023/08/17 03:19:07;;;;;;;2.33;2.03;;;19.20;1.00;;;;;;5031120;28;20234;-76
2023/08/17 03:21:34;;;;;;;2.17;2.08;;;18.70;1.00;;;;;;5030982;28;20226;-77
2023/08/17 03:23:59;;;;;;;1.98;1.80;;;18.70;1.00;;;;;;5013180;28;20203;-76
2023/08/17 03:26:25;;;;;;;2.25;1.80;;;18.70;1.00;;;;;;5009484;28;20957;-75
2023/08/17 03:28:51;;;;;;;1.92;1.83;;;18.70;1.00;;;;;;5029184;28;20284;-75
2023/08/17 03:31:17;;;;;;;2.15;2.05;;;18.70;1.00;;;;;;5028443;28;20794;-75
2023/08/17 03:33:43;;;;;;;1.85;1.75;;;18.80;1.00;;;;;;5030170;28;20209;-75
2023/08/17 03:36:08;;;;;;;2.05;1.45;;;18.80;1.00;;;;;;5028968;28;20539;-76
2023/08/17 03:38:34;;;;;;;2.15;1.48;;;18.90;1.00;;;;;;5029630;28;20279;-76
2023/08/17 03:41:00;;;;;;;2.17;1.60;;;18.90;1.00;;;;;;5029226;28;20185;-76
2023/08/17 03:43:26;;;;;;;1.88;1.73;;;18.90;1.00;;;;;;5030329;28;20225;-75
2023/08/17 03:45:52;;;;;;;1.65;1.55;;;18.80;1.00;;;;;;5028895;28;20175;-76
2023/08/17 03:48:18;;;;;;;2.00;1.90;;;18.80;1.00;;;;;;5029637;28;20216;-77
2023/08/17 03:50:44;;;;;;;2.10;2.00;;;18.80;1.00;;;;;;5029548;28;20666;-76
2023/08/17 03:53:09;;;;;;;2.05;1.95;;;18.80;1.00;;;;;;5029860;28;20206;-75
2023/08/17 03:55:35;;;;;;;2.10;2.00;;;18.70;1.00;;;;;;5026972;28;20195;-75
2023/08/17 03:58:01;;;;;;;2.35;2.25;;;18.70;1.00;;;;;;5027342;28;20708;-75
2023/08/17 04:00:26;;;;;;;2.10;2.00;;;18.70;1.00;;;;;;5027749;28;20687;-76
2023/08/17 04:02:52;;;;;;;2.30;2.20;;;18.70;1.00;;;;;;5027184;28;20572;-75
2023/08/17 04:05:17;;;;;;;3.05;2.20;;;18.80;1.00;;;;;;5009257;28;20266;-76
2023/08/17 04:07:43;;;;;;;2.28;2.15;;;18.90;1.00;;;;;;5027355;28;20217;-75
2023/08/17 04:10:09;;;;;;;2.45;2.25;;;18.80;99.90;;;;;;5027169;28;20586;-76
2023/08/17 04:12:34;;;;;;;2.40;2.20;;;18.80;99.90;;;;;;5027021;28;20240;-76
2023/08/17 04:15:00;;;;;;;2.80;2.50;;;19.10;99.90;;;;;;5026695;28;20199;-76
2023/08/17 04:17:26;;;;;;;2.38;2.28;;;18.80;99.90;;;;;;5027028;28;20178;-75
2023/08/17 04:19:52;;;;;;;2.72;2.50;;;18.80;99.90;;;;;;5027071;28;20217;-76
2023/08/17 04:22:17;;;;;;;2.70;2.50;;;18.80;99.90;;;;;;5027295;28;20656;-76
2023/08/17 04:24:43;;;;;;;3.00;2.80;;;18.80;99.90;;;;;;5008543;28;20202;-75
2023/08/17 04:27:09;;;;;;;3.30;3.00;;;18.80;99.90;;;;;;5026400;28;20187;-75
2023/08/17 04:29:34;;;;;;;3.10;2.90;;;18.80;99.90;;;;;;5026963;28;20244;-77
2023/08/17 04:32:00;;;;;;;3.25;3.05;;;18.70;99.90;;;;;;5026777;28;20654;-75
2023/08/17 04:34:26;;;;;;;4.35;4.03;;;18.70;1.00;;;;;;5026524;28;20666;-76
2023/08/17 04:36:51;;;;;;;3.45;3.17;;;18.90;1.00;;;;;;5026077;28;20187;-76
2023/08/17 04:39:17;;;;;;;2.95;2.70;;;19.00;1.00;;;;;;5026512;28;20217;-76
2023/08/17 04:41:43;;;;;;;4.00;3.50;;;19.00;99.90;;;;;;5008669;28;20274;-76
2023/08/17 04:44:08;;;;;;;4.07;3.78;;;19.00;99.90;;;;;;5026377;28;20195;-77
2023/08/17 04:46:35;;;;;;;4.05;3.72;;;19.00;90.10;;;;;;5008191;28;20205;-78
2023/08/17 04:49:00;;;;;;;3.92;3.63;;;19.00;99.90;;;;;;5026828;28;20241;-76
2023/08/17 04:51:26;;;;;;;3.83;3.53;;;19.00;99.90;;;;;;5026458;28;20218;-77
2023/08/17 04:53:52;;;;;;;3.65;3.35;;;18.90;99.90;;;;;;5026945;28;20246;-79
2023/08/17 04:56:17;;;;;;;4.57;3.67;;;18.90;99.90;;;;;;5025558;28;20619;-76
2023/08/17 04:58:43;;;;;;;3.78;3.47;;;18.90;99.90;;;;;;5026925;28;20218;-77
2023/08/17 05:01:10;;;;;;;4.13;3.80;;;18.90;99.90;;;;;;5025939;28;20187;-76
2023/08/17 05:03:36;;;;;;;4.47;4.03;;;18.90;99.90;;;;;;5026341;28;20195;-76
2023/08/17 05:06:01;;;;;;;4.68;4.20;;;19.10;1.00;;;;;;5007589;28;20498;-79
2023/08/17 05:08:27;;;;;;;5.93;4.10;;;19.10;99.90;;;;;;5026088;28;20202;-77
2023/08/17 05:10:53;;;;;;;4.60;4.20;;;19.10;99.90;;;;;;5026000;28;20201;-79
2023/08/17 05:13:19;;;;;;;4.70;4.20;;;19.10;99.90;;;;;;5026138;28;20294;-78
2023/08/17 05:15:44;;;;;;;4.22;3.85;;;19.20;99.90;;;;;;5025513;28;21100;-78
2023/08/17 05:18:10;;;;;;;4.10;3.80;;;19.20;99.90;;;;;;5025959;28;20221;-78
2023/08/17 05:20:36;;;;;;;4.10;3.70;;;19.10;27.80;;;;;;5026024;28;20178;-77
2023/08/17 05:23:02;;;;;;;3.83;3.53;;;19.00;99.90;;;;;;5007822;28;20221;-77
2023/08/17 05:25:29;;;;;;;5.45;3.60;;;19.00;6.70;;;;;;5024193;28;20538;-78
2023/08/17 05:27:55;;;;;;;3.72;3.33;;;18.80;99.90;;;;;;5020071;28;20267;-77
2023/08/17 05:30:20;;;;;;;3.35;3.05;;;18.90;99.90;;;;;;5006716;28;20646;-78
2023/08/17 05:32:46;;;;;;;3.90;3.60;;;18.80;99.90;;;;;;5023046;28;20190;-76
2023/08/17 05:35:12;;;;;;;3.58;3.28;;;18.80;99.90;;;;;;5024312;28;20646;-77
2023/08/17 05:37:38;;;;;;;3.60;3.30;;;18.80;99.90;;;;;;5025216;28;20244;-76
2023/08/17 05:40:04;;;;;;;3.75;3.45;;;18.80;99.90;;;;;;5025359;28;20267;-76
2023/08/17 05:42:30;;;;;;;3.33;3.03;;;18.90;99.90;;;;;;5025920;28;20253;-76
2023/08/17 05:44:56;;;;;;;3.47;3.17;;;19.00;99.90;;;;;;5025666;28;20721;-75
2023/08/17 05:47:21;;;;;;;3.50;3.20;;;19.20;99.90;;;;;;5025981;28;20277;-76
2023/08/17 05:49:47;;;;;;;3.33;3.03;;;19.20;68.30;;;;;;5024870;28;20545;-76
2023/08/17 05:52:13;;;;;;;3.22;2.92;;;19.20;1.00;;;;;;5025309;28;20229;-77
2023/08/17 05:54:39;;;;;;;4.00;3.70;;;19.30;1.00;;;;;;5024091;28;20210;-79
2023/08/17 05:57:05;;;;;;;4.68;3.75;;;19.30;86.90;;;;;;5024331;28;20551;-76
2023/08/17 05:59:30;;;;;;;4.10;3.70;;;19.30;17.70;;;;;;5007833;28;20221;-77
2023/08/17 06:01:56;;;;;;;3.33;3.10;;;19.20;21.60;;;;;;5026578;28;20179;-77
2023/08/17 06:04:22;;;;;;;4.40;3.50;;;19.10;1.00;;;;;;5027121;28;20610;-77
2023/08/17 06:06:47;;;;;;;3.55;3.35;;;19.10;37.50;;;;;;5026268;28;20167;-77
2023/08/17 06:09:14;;;;;;;3.20;2.90;;;19.10;99.90;;;;;;5026646;28;20221;-78
2023/08/17 06:11:40;;;;;;;2.70;2.58;;;19.00;99.90;;;;;;5025206;28;20194;-76
2023/08/17 06:14:06;;;;;;;2.63;2.42;;;19.00;77.40;;;;;;5025077;28;20223;-76
2023/08/17 06:16:31;;;;;;;2.95;2.65;;;19.00;99.90;;;;;;5007494;28;20195;-76
2023/08/17 06:18:57;;;;;;;3.08;2.55;;;19.00;30.00;;;;;;5024753;28;20207;-77
2023/08/17 06:21:23;;;;;;;3.15;2.90;;;19.00;1.00;;;;;;5026300;28;20197;-78
2023/08/17 06:23:48;;;;;;;4.53;2.95;;;18.90;1.00;;;;;;5027816;28;20209;-76
2023/08/17 06:26:14;;;;;;;3.40;3.10;;;19.00;99.90;;;;;;5010273;28;20175;-78
2023/08/17 06:28:40;;;;;;;4.07;3.78;;;18.90;99.90;;;;;;5010774;28;20198;-77
2023/08/17 06:31:05;;;;;;;4.95;4.22;;;18.90;99.90;;;;;;5010775;28;20191;-77
2023/08/17 06:33:31;;;;;;;5.47;4.47;;;18.80;99.90;;;;;;5027553;28;20199;-76
2023/08/17 06:35:56;;;;;;;5.60;4.07;;;18.80;99.90;;;;;;5025729;28;20266;-76
2023/08/17 06:38:22;;;;;;;4.88;4.47;;;18.70;1.00;;;;;;5029327;28;21188;-77
2023/08/17 06:40:48;;;;;;;5.80;5.18;;;18.70;1.00;;;;;;5030186;28;20179;-78
2023/08/17 06:43:13;;;;;;;6.07;5.57;;;18.60;1.00;;;;;;5031052;28;20678;-76
2023/08/17 06:45:39;;;;;;;5.60;5.10;;;18.60;1.00;;;;;;5035787;28;20216;-75
2023/08/17 06:48:05;;;;;;;6.20;5.60;;;18.60;1.00;;;;;;5011337;28;20547;-76
2023/08/17 06:50:31;;;;;;;6.22;5.63;;;18.60;1.00;;;;;;5025724;28;20571;-76
2023/08/17 06:52:56;;;;;;;6.38;5.85;;;18.70;1.00;;;;;;5007078;28;20187;-76
2023/08/17 06:55:22;;;;;;;6.47;5.88;;;18.70;1.00;;;;;;5024159;28;20272;-77
2023/08/17 06:57:51;;;;;;;6.20;5.70;;;18.70;1.00;;;;;;5027643;28;20175;-77
2023/08/17 07:00:20;;;;;;;6.00;5.50;;;18.80;1.00;;;;;;5030145;28;20251;-76
2023/08/17 07:02:47;;;;;;;4.85;4.45;;;18.80;1.00;;;;;;5029542;28;20194;-76
2023/08/17 07:05:16;;;;;;;4.80;4.40;;;18.70;1.00;;;;;;5011726;28;20183;-77
2023/08/17 07:07:42;;;;;;;4.53;4.13;;;18.80;1.00;;;;;;5027106;28;20635;-77
2023/08/17 07:10:10;;;;;;;4.65;4.20;;;18.70;1.00;;;;;;5026563;28;20175;-76
2023/08/17 07:12:36;;;;;;;3.78;3.40;;;18.70;1.00;;;;;;5026630;28;20230;-75
2023/08/17 07:15:04;;;;;;;3.58;3.28;;;18.80;1.00;;;;;;5025855;28;20281;-76
2023/08/17 07:17:30;;;;;;;3.25;3.05;;;18.80;1.00;;;;;;5025654;28;20258;-77
2023/08/17 07:19:56;;;;;;;3.17;2.80;;;18.80;1.00;;;;;;5026309;28;20207;-75
2023/08/17 07:22:22;;;;;;;3.53;3.22;;;18.80;1.00;;;;;;5027608;28;20630;-76
2023/08/17 07:24:47;;;;;;;3.63;2.50;;;18.80;1.00;;;;;;5026145;28;20306;-77
2023/08/17 07:27:13;;;;;;;2.33;2.20;;;18.90;1.00;;;;;;5027298;28;20645;-76
2023/08/17 07:29:39;;;;;;;2.10;2.00;;;18.90;1.00;;;;;;5009148;28;20224;-77
2023/08/17 07:32:05;;;;;;;3.00;2.15;;;19.00;1.00;;;;;;5012140;28;20190;-76
2023/08/17 07:34:31;;;;;;;2.30;2.10;;;19.10;1.00;;;;;;5028569;28;20194;-76
2023/08/17 07:36:57;;;;;;;1.52;1.42;;;19.20;99.90;;;;;;5025947;28;20186;-76
2023/08/17 07:39:23;;;;;;;1.40;1.30;;;19.30;99.90;;;;;;5028475;28;20202;-76
2023/08/17 07:41:48;;;;;;;1.40;1.30;;;19.40;1.00;;;;;;5028327;28;20507;-76
2023/08/17 07:44:14;;;;;;;1.20;1.20;;;19.40;1.00;;;;;;5027049;28;20285;-77
2023/08/17 07:46:40;;;;;;;1.20;1.10;;;19.50;1.00;;;;;;5026897;28;20412;-75
2023/08/17 07:49:06;;;;;;;1.70;1.27;;;19.40;1.00;;;;;;5025481;28;20236;-76
2023/08/17 07:51:33;;;;;;;1.30;1.20;;;19.40;1.00;;;;;;5024481;28;20183;-78
2023/08/17 07:54:00;;;;;;;1.20;1.10;;;19.50;1.00;;;;;;5025489;28;20206;-76
2023/08/17 07:56:25;;;;;;;1.35;1.25;;;19.40;1.00;;;;;;5026579;28;20642;-78
2023/08/17 07:58:53;;;;;;;1.45;1.35;;;19.40;1.00;;;;;;5026429;28;20277;-75
2023/08/17 08:01:18;;;;;;;1.30;1.20;;;19.40;1.00;;;;;;5027910;28;20187;-76
2023/08/17 08:03:44;;;;;;;1.50;1.40;;;19.30;99.90;;;;;;5024464;28;20210;-77
2023/08/17 08:06:10;;;;;;;1.58;1.48;;;19.30;34.90;;;;;;5005895;28;20183;-76
2023/08/17 08:08:35;;;;;;;1.60;1.50;;;19.20;99.90;;;;;;5023762;28;20217;-75
2023/08/17 08:11:01;;;;;;;1.55;1.45;;;19.20;99.90;;;;;;5026208;28;20202;-75
2023/08/17 08:13:27;;;;;;;1.67;1.58;;;19.30;99.90;;;;;;5010005;28;20210;-75
2023/08/17 08:15:53;;;;;;;1.60;1.50;;;19.30;99.90;;;;;;5009808;28;20191;-76
2023/08/17 08:18:18;;;;;;;1.40;1.30;;;19.30;99.90;;;;;;5028315;28;20211;-76
2023/08/17 08:20:44;;;;;;;1.70;1.60;;;19.30;99.90;;;;;;5028661;28;20193;-76
2023/08/17 08:23:10;;;;;;;1.70;1.60;;;19.30;99.90;;;;;;5027774;28;20199;-75
2023/08/17 08:25:35;;;;;;;2.20;1.92;;;19.30;99.90;;;;;;5027972;28;20186;-76
2023/08/17 08:28:01;;;;;;;1.90;1.80;;;19.30;99.90;;;;;;5028495;28;20191;-76
2023/08/17 08:30:27;;;;;;;1.75;1.65;;;19.30;99.90;;;;;;5028276;28;20183;-76
2023/08/17 08:32:55;;;;;;;1.75;1.65;;;19.30;99.90;;;;;;5027172;28;20636;-76
2023/08/17 08:35:22;;;;;;;1.70;1.60;;;19.30;99.90;;;;;;5009158;28;20325;-76
2023/08/17 08:37:47;;;;;;;1.70;1.60;;;19.30;99.90;;;;;;5027364;28;20176;-76
2023/08/17 08:40:16;;;;;;;2.45;2.00;;;19.30;1.00;;;;;;5027772;28;20218;-76
2023/08/17 08:42:42;;;;;;;1.92;1.83;;;19.30;60.40;;;;;;5025812;28;20183;-77
2023/08/17 08:45:08;;;;;;;1.77;1.67;;;19.30;1.00;;;;;;5023064;28;20487;-76
2023/08/17 08:47:36;;;;;;;2.03;1.75;;;19.20;97.60;;;;;;5024695;28;20183;-75
2023/08/17 08:50:04;;;;;;;2.10;2.00;;;19.20;99.90;;;;;;5025573;28;20198;-77
2023/08/17 08:52:42;;;;;;;2.10;2.00;;;19.30;99.90;;;;;;5026058;28;20175;-76
2023/08/17 08:55:14;;;;;;;2.22;2.13;;;19.30;99.90;;;;;;5024937;28;20218;-75
2023/08/17 08:57:40;;;;;;;2.45;2.30;;;19.30;99.90;;;;;;5025052;28;20187;-76
2023/08/17 09:00:07;;;;;;;2.38;1.90;;;19.30;1.00;;;;;;5025943;28;20215;-74
2023/08/17 09:02:34;;;;;;;3.33;3.13;;;19.30;1.00;;;;;;5027424;28;20175;-77
2023/08/17 09:05:01;;;;;;;3.30;3.10;;;19.40;1.00;;;;;;5025907;28;20290;-75
2023/08/17 09:07:29;;;;;;;3.20;2.97;;;19.40;99.90;;;;;;5026962;28;20183;-76
2023/08/17 09:09:56;;;;;;;4.25;3.85;;;19.40;99.90;;;;;;5027685;28;20198;-76
2023/08/17 09:12:22;;;;;;;4.28;3.97;;;19.40;1.00;;;;;;5026876;28;20178;-77
2023/08/17 09:14:48;;;;;;;4.90;4.30;;;19.40;1.00;;;;;;5027004;28;20210;-76
2023/08/17 09:17:14;;;;;;;5.00;4.60;;;19.60;1.00;;;;;;5026800;28;20240;-75
2023/08/17 09:19:39;;;;;;;5.43;4.88;;;19.50;99.90;;;;;;5027478;28;20289;-77
2023/08/17 09:22:05;;;;;;;4.53;4.10;;;19.40;1.00;;;;;;5009353;28;20241;-76
2023/08/17 09:24:37;;;;;;;5.30;4.90;;;19.50;1.00;;;;;;5008172;28;20214;-77
2023/08/17 09:27:03;;;;;;;5.60;5.00;;;19.50;1.00;;;;;;5026532;28;20605;-75
2023/08/17 09:29:36;;;;;;;5.10;4.70;;;19.60;1.00;;;;;;5027389;28;20187;-75
2023/08/17 09:32:06;;;;;;;4.82;4.38;;;19.60;1.00;;;;;;5026316;28;20183;-76
2023/08/17 09:34:32;;;;;;;5.50;5.10;;;19.70;99.90;;;;;;5026491;28;20207;-76
2023/08/17 09:37:03;;;;;;;5.53;5.13;;;19.80;1.00;;;;;;5026399;28;20182;-76
2023/08/17 09:39:29;;;;;;;5.45;4.95;;;19.90;6.30;;;;;;5026639;28;20214;-76
2023/08/17 09:41:55;;;;;;;5.05;4.65;;;20.00;1.00;;;;;;5025418;28;20183;-76
2023/08/17 09:44:22;;;;;;;5.38;4.80;;;20.10;99.90;;;;;;5024611;28;20230;-76
2023/08/17 09:46:47;;;;;;;5.35;4.85;;;20.30;12.10;;;;;;5024395;28;20183;-76
2023/08/17 09:49:13;;;;;;;5.93;5.43;;;20.30;98.40;;;;;;5007205;28;20260;-76
2023/08/17 09:51:45;;;;;;;5.50;5.10;;;20.30;1.00;;;;;;5004945;28;20179;-76
2023/08/17 09:54:22;;;;;;;5.70;4.97;;;20.20;99.90;;;;;;5018991;28;20953;-76
2023/08/17 09:56:52;;;;;;;5.63;5.22;;;20.20;90.80;;;;;;5005018;28;20340;-78
2023/08/17 09:59:23;;;;;;;5.65;5.03;;;20.20;1.00;;;;;;5023757;28;20218;-75
2023/08/17 10:01:50;;;;;;;6.57;5.88;;;20.20;99.90;;;;;;5025364;28;20565;-75
2023/08/17 10:04:21;;;;;;;5.25;4.85;;;20.30;1.00;;;;;;5024579;28;20238;-75
2023/08/17 10:06:52;;;;;;;6.47;5.85;;;20.40;99.90;;;;;;5024417;28;20194;-76
2023/08/17 10:09:25;;;;;;;5.80;5.40;;;20.40;99.90;;;;;;5025008;28;20210;-76
2023/08/17 10:11:54;;;;;;;7.13;6.50;;;20.30;35.80;;;;;;5023461;28;20182;-76
2023/08/17 10:14:28;;;;;;;7.13;6.63;;;20.30;99.90;;;;;;5023575;28;20213;-76
2023/08/17 10:17:00;;;;;;;7.25;6.57;;;20.30;1.00;;;;;;5005225;28;20231;-77
2023/08/17 10:19:51;;;;;;;7.22;5.68;;;20.40;99.90;;;;;;5024237;28;20605;-76
2023/08/17 10:22:36;;;;;;;7.53;6.95;;;20.30;99.90;;;;;;5023965;28;20269;-76
2023/08/17 10:25:03;;;;;;;7.43;6.82;;;20.10;16.60;;;;;;5024306;28;20552;-76
2023/08/17 10:27:30;;;;;;;7.43;6.82;;;19.80;66.90;;;;;;5025127;28;20337;-77
2023/08/17 10:29:56;;;;;;;7.85;7.25;;;19.50;99.90;;;;;;5024915;28;20189;-75
2023/08/17 10:32:23;;;;;;;8.98;8.07;;;19.30;1.00;;;;;;5023783;28;20236;-75
2023/08/17 10:34:51;;;;;;;9.65;8.82;;;19.20;1.00;;;;;;5021845;28;20272;-75
2023/08/17 10:37:19;;;;;;;9.60;8.80;;;19.20;89.80;;;;;;5024232;28;20187;-76
2023/08/17 10:39:46;;;;;;;9.05;8.25;;;19.10;1.00;;;;;;5024068;28;20202;-76
2023/08/17 10:42:13;;;;;;;10.02;9.05;;;19.40;1.00;;;;;;5024142;28;20236;-76
2023/08/17 10:44:45;;;;;;;9.52;8.57;;;19.60;1.00;;;;;;5023921;28;20207;-76
2023/08/17 10:47:40;;;;;;;9.07;8.35;;;19.80;99.90;;;;;;5024042;28;20237;-75
2023/08/17 10:50:20;;;;;;;8.60;7.90;;;20.20;22.60;;;;;;5011159;28;20203;-76
2023/08/17 10:52:48;;;;;;;6.90;6.40;;;20.60;87.60;;;;;;5006792;28;20637;-76
2023/08/17 10:55:14;;;;;;;7.72;7.03;;;20.90;1.00;;;;;;5023827;28;20552;-76
2023/08/17 10:57:44;;;;;;;6.75;6.15;;;21.20;1.00;;;;;;5023836;28;20179;-75
2023/08/17 11:00:31;;;;;;;7.28;6.57;;;21.60;99.90;;;;;;5023134;28;20374;-76
2023/08/17 11:02:59;;;;;;;6.60;6.07;;;21.80;99.90;;;;;;5006468;28;20187;-75
2023/08/17 11:05:37;;;;;;;7.30;6.68;;;21.90;99.90;;;;;;5025303;28;20281;-77
2023/08/17 11:08:03;;;;;;;7.10;6.38;;;22.00;1.00;;;;;;5028222;28;20179;-76
2023/08/17 11:10:30;;;;;;;7.32;6.63;;;22.10;1.00;;;;;;5027884;28;20183;-76
2023/08/17 11:12:59;;;;;;;6.63;6.07;;;22.30;1.00;;;;;;5027947;28;20194;-76
2023/08/17 11:15:48;;;;;;;6.75;6.13;;;22.50;1.00;;;;;;5009717;28;20187;-76
2023/08/17 11:18:14;;;;;;;5.60;5.20;;;22.70;1.00;;;;;;5028170;28;20171;-75
2023/08/17 11:20:41;;;;;;;6.20;5.70;;;23.10;54.10;;;;;;5027790;28;20186;-76
2023/08/17 11:23:08;;;;;;;6.18;5.68;;;23.30;1.00;;;;;;5027698;28;20203;-76
2023/08/17 11:25:34;;;;;;;7.32;6.72;;;23.40;1.00;;;;;;5026869;28;20208;-77
2023/08/17 11:28:03;;;;;;;6.90;6.30;;;23.20;1.00;;;;;;5028622;28;20281;-76
2023/08/17 11:30:29;;;;;;;6.00;5.57;;;23.00;1.00;;;;;;5029387;28;20263;-75
2023/08/17 11:32:56;;;;;;;8.20;6.45;;;23.00;1.00;;;;;;5027446;28;20540;-77
2023/08/17 11:35:22;;;;;;;7.93;7.20;;;22.70;1.00;;;;;;5009314;28;20183;-75
2023/08/17 11:37:48;;;;;;;7.93;7.22;;;22.50;1.00;;;;;;5026546;28;20167;-75
2023/08/17 11:40:15;;;;;;;8.48;7.75;;;22.10;1.00;;;;;;5023809;28;20281;-75
2023/08/17 11:42:42;;;;;;;9.77;8.05;;;22.00;1.00;;;;;;5025206;28;20186;-75
2023/08/17 11:45:09;;;;;;;8.80;8.10;;;21.80;99.90;;;;;;5027834;28;21114;-75
2023/08/17 11:47:43;;;;;;;8.95;8.15;;;21.80;99.90;;;;;;5028137;28;20532;-75
2023/08/17 11:50:11;;;;;;;8.80;8.10;;;21.90;99.90;;;;;;5027664;28;20182;-76
2023/08/17 11:52:38;;;;;;;10.35;9.45;;;21.90;99.90;;;;;;5008427;28;20938;-79
2023/08/17 11:55:17;;;;;;;10.13;9.23;;;21.90;99.90;;;;;;5026914;28;20179;-75
2023/08/17 11:57:42;;;;;;;9.45;8.68;;;21.70;99.90;;;;;;5007997;28;20187;-75
2023/08/17 12:00:10;;;;;;;8.80;7.97;;;22.10;78.80;;;;;;5024408;28;20213;-77
2023/08/17 12:02:41;;;;;;;9.50;8.70;;;22.20;1.00;;;;;;5025700;28;20175;-75
2023/08/17 12:05:09;;;;;;;9.50;8.68;;;22.20;1.00;;;;;;5024937;28;20183;-74
2023/08/17 12:07:37;;;;;;;7.53;6.93;;;22.40;1.00;;;;;;5026868;28;20179;-75
2023/08/17 12:10:04;;;;;;;6.97;6.47;;;22.70;1.00;;;;;;5026294;28;20221;-76
2023/08/17 12:12:36;;;;;;;7.88;7.28;;;23.00;1.00;;;;;;5010289;28;20187;-74
2023/08/17 12:15:03;;;;;;;7.90;7.20;;;23.00;99.90;;;;;;4992626;28;20211;-75
2023/08/17 12:17:29;;;;;;;8.38;7.50;;;23.20;99.90;;;;;;5024848;28;20685;-75
2023/08/17 12:19:56;;;;;;;8.18;7.47;;;22.90;99.90;;;;;;5027340;28;20234;-76
2023/08/17 12:22:25;;;;;;;7.28;6.72;;;22.80;99.90;;;;;;5024369;28;20186;-75
2023/08/17 12:24:52;;;;;;;7.45;6.80;;;22.60;99.90;;;;;;4998306;28;20373;-75
2023/08/17 12:27:18;;;;;;;9.30;8.50;;;22.50;99.90;;;;;;5006078;28;20195;-75
2023/08/17 12:29:48;;;;;;;9.82;9.02;;;22.30;99.90;;;;;;5008885;28;20649;-78
2023/08/17 12:32:16;;;;;;;10.05;9.15;;;22.10;1.00;;;;;;5025922;28;20201;-78
2023/08/17 12:34:42;;;;;;;9.40;8.60;;;21.90;1.00;;;;;;5007118;28;20732;-78
2023/08/17 12:37:12;;;;;;;9.70;8.90;;;21.70;20.90;;;;;;5011198;28;20294;-77
2023/08/17 12:39:38;;;;;;;10.05;9.18;;;21.60;99.90;;;;;;5028882;28;20708;-77
2023/08/17 12:42:05;;;;;;;10.07;9.18;;;21.50;97.90;;;;;;5011483;28;20301;-78
2023/08/17 12:44:31;;;;;;;10.77;9.68;;;21.40;99.90;;;;;;4999728;28;20672;-74
2023/08/17 12:46:56;;;;;;;10.32;9.38;;;21.30;1.00;;;;;;5007531;28;20966;-74
2023/08/17 12:49:25;;;;;;;9.90;9.00;;;21.40;1.00;;;;;;5026172;28;20217;-75
2023/08/17 12:51:51;;;;;;;10.80;9.85;;;21.40;1.00;;;;;;5026266;28;20688;-75